Time;durP1;ratioP1;P1;durP2;ratioP2;P2;SDS_P1;SDS_P2;PMS_P1;PMS_P2;Temp;Humidity;BMP_temperature;BMP_pressure;BME280_temperature;BME280_humidity;BME280_pressure;Samples;Min_cycle;Max_cycle;Signal;HPM_P1;HPM_P2
2022/05/12 00:02:18;;;;;;;7.22;4.90;;;;;;;22.60;57.38;101409.41;4995372;28;20042;-82
2022/05/12 00:04:46;;;;;;;6.88;4.90;;;;;;;22.61;57.58;101413.00;4995094;28;20058;-81
2022/05/12 00:07:13;;;;;;;6.38;5.30;;;;;;;22.61;57.61;101408.44;4994705;28;20057;-81
2022/05/12 00:09:40;;;;;;;5.40;4.70;;;;;;;22.60;57.73;101398.63;4994532;28;20050;-81
2022/05/12 00:12:08;;;;;;;5.50;4.90;;;;;;;22.60;57.52;101398.63;4994993;28;20101;-80
2022/05/12 00:14:36;;;;;;;4.75;4.35;;;;;;;22.60;57.61;101400.47;4993657;28;20046;-80
2022/05/12 00:17:04;;;;;;;4.95;4.43;;;;;;;22.60;57.38;101401.31;4993884;28;20090;-80
2022/05/12 00:19:32;;;;;;;5.18;4.68;;;;;;;22.59;57.74;101405.00;4994396;28;20053;-80
2022/05/12 00:21:59;;;;;;;5.38;4.80;;;;;;;22.60;57.55;101392.38;4993772;28;20402;-80
2022/05/12 00:24:26;;;;;;;6.82;4.22;;;;;;;22.59;57.64;101383.41;4993260;28;20057;-80
2022/05/12 00:26:54;;;;;;;6.75;4.63;;;;;;;22.59;57.43;101391.53;4995168;28;20047;-80
2022/05/12 00:29:21;;;;;;;5.28;4.32;;;;;;;22.59;57.57;101391.53;4994882;28;20042;-80
2022/05/12 00:31:49;;;;;;;4.72;4.18;;;;;;;22.58;57.70;101395.22;4995512;28;20042;-81
2022/05/12 00:34:20;;;;;;;5.85;4.80;;;;;;;22.59;57.69;101396.91;4996607;28;20061;-80
2022/05/12 00:36:48;;;;;;;4.82;4.28;;;;;;;22.59;57.33;101396.91;4996142;28;20054;-80
2022/05/12 00:39:16;;;;;;;5.60;4.57;;;;;;;22.58;57.54;101388.97;4993713;28;20094;-81
2022/05/12 00:41:43;;;;;;;5.20;4.55;;;;;;;22.59;57.30;101398.75;4996535;28;20050;-81
2022/05/12 00:44:13;;;;;;;4.65;3.90;;;;;;;22.58;57.46;101395.22;4998372;28;20061;-81
2022/05/12 00:46:42;;;;;;;5.47;4.32;;;;;;;22.58;57.19;101395.22;4997234;28;20513;-81
2022/05/12 00:49:26;;;;;;;4.97;4.43;;;;;;;22.59;57.17;101401.47;4996987;28;20050;-81
2022/05/12 00:52:06;;;;;;;5.72;4.75;;;;;;;22.57;57.44;101404.31;4997438;28;20050;-81
2022/05/12 00:54:40;;;;;;;4.35;3.90;;;;;;;22.58;57.36;101395.22;4995468;28;20101;-81
2022/05/12 00:57:12;;;;;;;5.15;4.68;;;;;;;22.57;57.37;101401.63;4998320;28;20050;-82
2022/05/12 00:59:41;;;;;;;4.88;4.10;;;;;;;22.57;57.46;101404.31;4997432;28;20042;-82
2022/05/12 01:02:14;;;;;;;5.53;4.60;;;;;;;22.58;57.04;101399.75;5012522;28;20050;-82
2022/05/12 01:04:45;;;;;;;5.43;4.38;;;;;;;22.57;57.52;101396.22;4997288;28;20395;-81
2022/05/12 01:07:22;;;;;;;5.35;3.85;;;;;;;22.57;57.28;101393.53;4996624;28;20054;-81
2022/05/12 01:09:50;;;;;;;5.53;4.25;;;;;;;22.56;57.32;101397.19;4996185;28;20050;-79
2022/05/12 01:12:18;;;;;;;6.43;4.40;;;;;;;22.57;57.34;101389.97;4979230;28;20047;-79
2022/05/12 01:14:48;;;;;;;5.55;4.40;;;;;;;22.57;57.32;101404.31;5012699;28;20058;-81
2022/05/12 01:17:17;;;;;;;6.15;5.07;;;;;;;22.57;57.22;101392.66;4996328;28;20494;-81
2022/05/12 01:19:48;;;;;;;4.88;4.38;;;;;;;22.57;57.22;101400.78;4980786;28;20053;-82
2022/05/12 01:22:47;;;;;;;4.90;4.40;;;;;;;22.57;57.26;101396.22;4995552;28;20062;-81
2022/05/12 01:25:18;;;;;;;5.47;4.75;;;;;;;22.56;57.08;101402.59;4996167;28;20058;-81
2022/05/12 01:27:46;;;;;;;5.18;4.65;;;;;;;22.56;57.39;101401.75;4996528;28;20053;-81
2022/05/12 01:30:18;;;;;;;6.72;4.50;;;;;;;22.57;57.25;101407.00;4996566;28;20129;-82
2022/05/12 01:32:49;;;;;;;5.38;4.68;;;;;;;22.57;57.29;101403.47;4997431;28;20054;-81
2022/05/12 01:35:20;;;;;;;4.85;4.35;;;;;;;22.55;56.85;101398.19;4998038;28;20057;-81
2022/05/12 01:37:48;;;;;;;5.68;4.28;;;;;;;22.56;57.02;101402.59;5012446;28;20057;-81
2022/05/12 01:40:20;;;;;;;5.97;4.70;;;;;;;22.55;57.23;101400.03;4996674;28;20051;-81
2022/05/12 01:42:48;;;;;;;5.13;4.55;;;;;;;22.55;56.95;101400.88;4996405;28;20050;-81
2022/05/12 01:45:17;;;;;;;5.57;4.10;;;;;;;22.54;57.12;101393.78;4998064;28;20494;-82
2022/05/12 01:47:45;;;;;;;7.25;4.35;;;;;;;22.56;57.14;101399.03;5011444;28;20055;-80
2022/05/12 01:50:14;;;;;;;5.30;4.35;;;;;;;22.55;57.02;101400.03;4997044;28;20053;-80
2022/05/12 01:52:43;;;;;;;4.93;4.20;;;;;;;22.55;56.96;101398.19;4994065;28;20509;-80
2022/05/12 01:55:13;;;;;;;5.68;4.65;;;;;;;22.55;57.10;101400.88;4996814;28;20050;-80
2022/05/12 01:57:44;;;;;;;4.85;4.40;;;;;;;22.54;57.10;101412.69;4996763;28;20042;-80
2022/05/12 02:00:16;;;;;;;5.80;4.35;;;;;;;22.55;57.02;101416.22;4997735;28;20061;-80
2022/05/12 02:02:44;;;;;;;5.43;4.85;;;;;;;22.54;56.84;101415.38;4996370;28;20046;-80
2022/05/12 02:05:11;;;;;;;4.63;4.10;;;;;;;22.55;56.88;101418.94;4996800;28;20061;-80
2022/05/12 02:07:42;;;;;;;5.05;4.00;;;;;;;22.55;56.82;101421.63;4996742;28;20046;-81
2022/05/12 02:10:13;;;;;;;5.10;4.18;;;;;;;22.54;56.84;101426.16;4996241;28;20046;-80
2022/05/12 02:12:40;;;;;;;5.13;4.10;;;;;;;22.54;56.62;101415.38;4995989;28;20502;-80
2022/05/12 02:15:08;;;;;;;4.65;4.18;;;;;;;22.53;56.91;101410.97;4996618;28;20046;-80
2022/05/12 02:17:36;;;;;;;5.80;4.30;;;;;;;22.54;56.58;101418.06;4996436;28;20054;-80
2022/05/12 02:20:05;;;;;;;4.82;4.35;;;;;;;22.53;56.59;101416.38;4996114;28;20050;-80
2022/05/12 02:22:32;;;;;;;5.32;4.50;;;;;;;22.53;56.75;101418.22;4996721;28;20474;-81
2022/05/12 02:25:00;;;;;;;5.20;4.47;;;;;;;22.53;56.58;101424.47;4996562;28;20066;-80
2022/05/12 02:27:27;;;;;;;6.28;4.68;;;;;;;22.54;56.79;101438.81;4996837;28;20046;-80
2022/05/12 02:29:54;;;;;;;4.65;3.83;;;;;;;22.53;56.79;101443.38;4995219;28;20059;-80
2022/05/12 02:32:22;;;;;;;5.20;4.07;;;;;;;22.54;56.68;101446.91;4996909;28;20054;-80
2022/05/12 02:34:49;;;;;;;4.72;4.20;;;;;;;22.53;56.58;101445.22;4996441;28;20046;-80
2022/05/12 02:37:16;;;;;;;5.47;4.07;;;;;;;22.53;56.65;101446.06;4997018;28;20073;-80
2022/05/12 02:39:44;;;;;;;5.40;4.10;;;;;;;22.53;56.62;101443.38;4996917;28;20050;-79
2022/05/12 02:42:11;;;;;;;4.78;4.28;;;;;;;22.53;56.75;101439.81;4996623;28;20343;-80
2022/05/12 02:44:39;;;;;;;4.97;4.15;;;;;;;22.52;56.54;101438.94;4996473;28;20046;-80
2022/05/12 02:47:07;;;;;;;5.18;4.00;;;;;;;22.52;56.56;101441.63;4994699;28;20046;-81
2022/05/12 02:49:36;;;;;;;4.25;3.85;;;;;;;22.51;56.61;101442.63;4996146;28;20054;-80
2022/05/12 02:52:04;;;;;;;6.82;4.55;;;;;;;22.52;56.69;101438.09;4995811;28;20046;-80
2022/05/12 02:54:32;;;;;;;4.65;4.00;;;;;;;22.51;56.70;101439.09;4995781;28;20054;-80
2022/05/12 02:56:59;;;;;;;5.57;4.45;;;;;;;22.52;56.49;101441.63;4996028;28;20073;-80
2022/05/12 02:59:26;;;;;;;8.35;4.63;;;;;;;22.51;56.62;101448.03;4995654;28;20152;-80
2022/05/12 03:01:54;;;;;;;5.57;4.60;;;;;;;22.51;56.40;101445.34;4996631;28;20057;-82
2022/05/12 03:04:21;;;;;;;5.00;3.88;;;;;;;22.51;56.48;101441.78;4992761;28;20043;-81
2022/05/12 03:06:49;;;;;;;6.32;4.50;;;;;;;22.51;56.41;101449.88;4994727;28;20050;-80
2022/05/12 03:09:16;;;;;;;4.90;4.38;;;;;;;22.51;56.41;101441.78;4995881;28;20050;-81
2022/05/12 03:11:43;;;;;;;4.80;4.05;;;;;;;22.50;56.36;101446.34;5010848;28;20042;-82
2022/05/12 03:14:11;;;;;;;4.47;3.85;;;;;;;22.50;56.31;101462.53;4994610;28;20051;-81
2022/05/12 03:16:38;;;;;;;4.28;3.88;;;;;;;22.51;56.19;101457.97;4996146;28;20046;-79
2022/05/12 03:19:06;;;;;;;4.80;4.40;;;;;;;22.51;56.34;101455.28;4994233;28;20046;-81
2022/05/12 03:21:33;;;;;;;6.07;4.70;;;;;;;22.50;56.47;101438.22;4994862;28;20057;-81
2022/05/12 03:24:01;;;;;;;5.20;4.38;;;;;;;22.52;56.38;101452.44;4995056;28;20050;-80
2022/05/12 03:26:28;;;;;;;4.57;4.18;;;;;;;22.52;56.86;101446.19;4994520;28;20046;-80
2022/05/12 03:28:55;;;;;;;7.00;4.28;;;;;;;22.51;56.38;101450.72;4994178;28;20046;-80
2022/05/12 03:31:23;;;;;;;5.20;4.45;;;;;;;22.51;56.66;101447.19;4995416;28;20042;-79
2022/05/12 03:33:51;;;;;;;4.55;4.03;;;;;;;22.51;56.57;101457.97;4994385;28;20057;-80
2022/05/12 03:36:18;;;;;;;5.22;4.50;;;;;;;22.50;56.67;101450.88;4995172;28;20053;-80
2022/05/12 03:38:45;;;;;;;7.80;4.65;;;;;;;22.50;56.38;101445.47;4992931;28;20538;-79
2022/05/12 03:41:13;;;;;;;5.22;4.70;;;;;;;22.49;56.50;101452.72;4987090;28;20047;-79
2022/05/12 03:46:31;;;;;;;4.93;4.00;;;;;;;22.49;56.46;101443.78;4976384;28;20046;-81
2022/05/12 03:48:59;;;;;;;6.35;4.55;;;;;;;22.49;56.23;101444.63;4977047;28;20051;-80
2022/05/12 03:51:26;;;;;;;6.53;4.47;;;;;;;22.48;56.36;101448.28;4988803;28;20046;-80
2022/05/12 03:53:54;;;;;;;5.38;4.68;;;;;;;22.48;56.16;101451.00;4994405;28;20047;-80
2022/05/12 03:56:21;;;;;;;7.65;4.55;;;;;;;22.48;56.36;101459.09;4994839;28;20046;-80
2022/05/12 03:58:49;;;;;;;5.63;4.00;;;;;;;22.48;56.40;101453.69;4995370;28;20054;-80
2022/05/12 04:01:16;;;;;;;6.43;4.57;;;;;;;22.48;56.12;101453.69;4995337;28;20398;-81
2022/05/12 04:03:45;;;;;;;4.32;3.80;;;;;;;22.47;56.40;101454.69;4993410;28;20042;-81
2022/05/12 04:06:13;;;;;;;5.97;4.25;;;;;;;22.46;56.36;101461.09;4993541;28;20340;-81
2022/05/12 04:08:41;;;;;;;6.53;4.32;;;;;;;22.48;56.13;101461.78;4993625;28;20054;-81
2022/05/12 04:11:08;;;;;;;4.63;4.13;;;;;;;22.47;56.25;101462.78;4995497;28;20049;-81
2022/05/12 04:13:36;;;;;;;4.30;3.80;;;;;;;22.47;56.14;101473.56;4994419;28;20065;-81
2022/05/12 04:16:04;;;;;;;4.05;3.65;;;;;;;22.46;56.10;101463.78;4995159;28;20057;-81
2022/05/12 04:18:31;;;;;;;5.55;4.40;;;;;;;22.46;56.26;101461.94;4997164;28;20109;-80
2022/05/12 04:20:58;;;;;;;4.35;3.95;;;;;;;22.46;55.92;101469.19;4999316;28;20053;-80
2022/05/12 04:23:26;;;;;;;5.30;4.80;;;;;;;22.46;56.19;101475.44;4998864;28;20050;-80
2022/05/12 04:26:00;;;;;;;5.20;4.07;;;;;;;22.44;55.92;101474.72;4998949;28;20054;-80
2022/05/12 04:28:27;;;;;;;4.85;4.25;;;;;;;22.45;55.85;101478.28;4997850;28;20053;-80
2022/05/12 04:30:55;;;;;;;4.45;3.83;;;;;;;22.45;55.89;101478.28;4998812;28;20076;-80
2022/05/12 04:36:08;;;;;;;5.53;4.22;;;;;;;22.44;55.88;101476.53;4997152;28;20076;-80
2022/05/12 04:38:36;;;;;;;6.22;4.53;;;;;;;22.45;55.60;101475.56;4998211;28;20046;-80
2022/05/12 04:41:03;;;;;;;6.22;4.18;;;;;;;22.45;55.96;101491.75;4998046;28;20054;-79
2022/05/12 04:43:30;;;;;;;6.10;3.97;;;;;;;22.44;55.93;101492.72;4997371;28;20490;-79
2022/05/12 04:45:58;;;;;;;5.60;3.63;;;;;;;22.43;55.79;101491.88;4996981;28;20359;-80
2022/05/12 04:48:26;;;;;;;4.95;3.50;;;;;;;22.43;55.88;101494.56;4997354;28;20046;-79
2022/05/12 04:50:54;;;;;;;4.25;3.85;;;;;;;22.42;55.79;101492.88;4997629;28;20053;-79
2022/05/12 04:53:21;;;;;;;4.57;3.95;;;;;;;22.44;55.61;101500.81;4998568;28;20351;-79
2022/05/12 04:55:49;;;;;;;5.40;4.22;;;;;;;22.43;55.59;101499.13;4999068;28;20394;-80
2022/05/12 04:58:16;;;;;;;6.28;4.22;;;;;;;22.43;55.39;101502.66;4998304;28;20042;-82
2022/05/12 05:00:44;;;;;;;5.07;3.78;;;;;;;22.42;55.43;101500.97;4997859;28;20518;-82
2022/05/12 05:03:12;;;;;;;6.25;4.07;;;;;;;22.43;55.51;101501.81;4997808;28;20046;-81
2022/05/12 05:05:47;;;;;;;4.05;3.65;;;;;;;22.42;55.67;101503.66;4998060;28;20050;-82
2022/05/12 05:08:17;;;;;;;5.75;3.80;;;;;;;22.42;55.48;101500.97;4997847;28;20054;-81
2022/05/12 05:10:44;;;;;;;5.57;4.18;;;;;;;22.42;55.32;101513.63;4996961;28;20402;-80
2022/05/12 05:13:12;;;;;;;7.72;4.18;;;;;;;22.41;55.45;101507.38;4997165;28;20046;-80
2022/05/12 05:15:40;;;;;;;4.72;3.83;;;;;;;22.43;55.41;101512.63;4996691;28;20057;-81
2022/05/12 05:18:13;;;;;;;4.85;3.58;;;;;;;22.42;55.26;101521.69;4995269;28;20050;-81
2022/05/12 05:20:41;;;;;;;4.38;3.90;;;;;;;22.42;55.26;101519.00;4998314;28;20073;-80
2022/05/12 05:23:10;;;;;;;5.25;4.00;;;;;;;22.41;55.50;101526.25;4997935;28;20069;-80
2022/05/12 05:25:38;;;;;;;5.05;3.70;;;;;;;22.40;55.37;101516.47;5012481;28;20054;-81
2022/05/12 05:28:06;;;;;;;4.50;3.45;;;;;;;22.41;55.40;101517.31;4998034;28;20047;-82
2022/05/12 05:30:33;;;;;;;4.95;4.13;;;;;;;22.40;55.52;101508.38;4998380;28;20042;-81
2022/05/12 05:33:01;;;;;;;5.53;3.97;;;;;;;22.42;55.46;101510.91;5011414;28;20050;-81
2022/05/12 05:35:28;;;;;;;4.22;3.78;;;;;;;22.41;55.31;101526.25;4995573;28;20047;-81
2022/05/12 05:37:55;;;;;;;4.50;3.45;;;;;;;22.41;55.25;101526.25;4998190;28;20054;-81
2022/05/12 05:40:31;;;;;;;3.92;3.53;;;;;;;22.41;55.43;101528.09;4998005;28;20046;-80
2022/05/12 05:42:59;;;;;;;4.28;3.88;;;;;;;22.41;55.14;101531.66;4997719;28;20057;-81
2022/05/12 05:45:27;;;;;;;5.43;3.65;;;;;;;22.42;55.22;101540.59;4999061;28;20051;-81
2022/05/12 05:47:58;;;;;;;5.32;4.10;;;;;;;22.41;55.46;101538.88;4998035;28;20050;-81
2022/05/12 05:53:23;;;;;;;4.00;3.35;;;;;;;22.41;55.22;101542.44;4996289;28;20533;-81
2022/05/12 05:53:25;;;;;;;5.55;3.85;;;;;;;22.40;55.21;101537.16;4977944;28;20050;-80
2022/05/12 05:55:58;;;;;;;4.05;3.63;;;;;;;22.41;55.45;101547.84;4977032;28;20418;-80
2022/05/12 05:58:26;;;;;;;5.27;3.97;;;;;;;22.41;55.28;101549.69;4977884;28;20061;-81
2022/05/12 06:00:54;;;;;;;4.57;3.75;;;;;;;22.41;55.24;101550.53;4977141;28;20284;-80
2022/05/12 06:03:23;;;;;;;4.80;3.65;;;;;;;22.41;55.53;101546.97;4976217;28;20047;-80
2022/05/12 06:05:51;;;;;;;4.13;3.70;;;;;;;22.41;55.30;101546.97;4977834;28;20065;-80
2022/05/12 06:08:20;;;;;;;4.20;3.55;;;;;;;22.41;55.61;101544.28;4977391;28;20046;-79
2022/05/12 06:10:58;;;;;;;4.10;3.47;;;;;;;22.40;55.42;101543.44;4977845;28;20055;-80
2022/05/12 06:13:26;;;;;;;4.45;3.30;;;;;;;22.41;55.39;101546.97;4977620;28;20046;-81
2022/05/12 06:15:53;;;;;;;4.22;3.50;;;;;;;22.40;55.56;101548.84;4975471;28;20051;-80
2022/05/12 06:18:20;;;;;;;4.97;3.70;;;;;;;22.41;55.36;101553.22;4976542;28;20414;-80
2022/05/12 06:20:49;;;;;;;4.00;3.60;;;;;;;22.41;54.22;101550.53;4977047;28;20050;-81
2022/05/12 06:23:17;;;;;;;6.47;4.15;;;;;;;22.41;53.22;101557.78;4976880;28;20063;-81
2022/05/12 06:25:45;;;;;;;5.50;4.38;;;;;;;22.39;52.66;101546.25;4974766;28;20069;-83
2022/05/12 06:28:13;;;;;;;4.80;4.30;;;;;;;22.37;52.55;101551.78;4977112;28;20505;-82
2022/05/12 06:30:40;;;;;;;5.07;4.03;;;;;;;22.37;52.21;101554.50;4977515;28;20057;-81
2022/05/12 06:33:15;;;;;;;7.70;4.47;;;;;;;22.36;52.41;101554.59;4976124;28;20058;-82
2022/05/12 06:35:43;;;;;;;6.00;4.32;;;;;;;22.36;52.66;101550.09;4976198;28;20384;-81
2022/05/12 06:38:11;;;;;;;7.20;4.28;;;;;;;22.38;52.47;101552.63;4975214;28;20053;-83
2022/05/12 06:40:39;;;;;;;6.40;4.72;;;;;;;22.37;51.96;101553.63;4976912;28;20396;-81
2022/05/12 06:43:08;;;;;;;7.68;4.40;;;;;;;22.38;51.89;101560.72;4976840;28;20430;-81
2022/05/12 06:45:36;;;;;;;6.88;3.90;;;;;;;22.38;51.56;101558.03;4977239;28;20391;-81
2022/05/12 06:48:04;;;;;;;5.90;4.32;;;;;;;22.38;51.31;101552.63;4976767;28;20053;-81
2022/05/12 06:50:32;;;;;;;8.30;4.75;;;;;;;22.37;50.11;101554.50;4976306;28;20066;-81
2022/05/12 06:52:59;;;;;;;6.82;4.25;;;;;;;22.37;50.57;101559.03;4993115;28;20478;-81
2022/05/12 06:55:29;;;;;;;4.65;3.88;;;;;;;22.37;51.00;101561.72;4995024;28;20502;-79
2022/05/12 06:57:57;;;;;;;4.95;4.07;;;;;;;22.37;51.46;101556.34;4984749;28;20053;-78
2022/05/12 07:00:25;;;;;;;6.85;4.32;;;;;;;22.37;51.46;101562.59;4975978;28;20050;-78
2022/05/12 07:02:53;;;;;;;5.72;3.65;;;;;;;22.39;53.02;101563.28;4975708;28;20051;-84
2022/05/12 07:05:24;;;;;;;6.30;4.30;;;;;;;22.40;53.63;101558.75;4985806;28;20073;-79
2022/05/12 07:07:53;;;;;;;5.50;4.20;;;;;;;22.42;53.89;101559.47;4994220;28;20061;-78
2022/05/12 07:10:25;;;;;;;9.60;4.00;;;;;;;22.43;54.21;101559.31;4995681;28;20046;-79
2022/05/12 07:12:52;;;;;;;6.33;3.67;;;;;;;22.46;54.47;101560.91;4981612;28;20055;-77
2022/05/12 07:15:25;;;;;;;9.38;3.78;;;;;;;22.48;54.91;101567.00;4973538;28;20054;-77
2022/05/12 07:17:53;;;;;;;4.97;3.67;;;;;;;22.49;55.15;101559.81;4975254;28;20486;-78
2022/05/12 07:28:48;;;;;;;6.43;3.47;;;;;;;22.58;55.54;101561.69;4975908;28;20046;-81
2022/05/12 07:31:15;;;;;;;9.48;3.63;;;;;;;22.58;55.16;101567.06;4976177;28;20403;-78
2022/05/12 07:33:45;;;;;;;5.53;3.63;;;;;;;22.60;55.75;101565.94;4975246;28;20050;-87
2022/05/12 07:36:16;;;;;;;6.32;4.40;;;;;;;22.62;55.36;101572.06;4974759;28;20046;-78
2022/05/12 07:38:45;;;;;;;6.18;3.88;;;;;;;22.63;55.44;101571.06;4975812;28;20057;-80
2022/05/12 07:41:13;;;;;;;8.52;3.95;;;;;;;22.63;55.56;101565.66;4975129;28;20053;-79
2022/05/12 07:43:42;;;;;;;8.18;3.58;;;;;;;22.67;55.91;101574.34;4975582;28;20505;-80
2022/05/12 07:46:12;;;;;;;9.68;3.97;;;;;;;22.67;55.68;101571.66;4974710;28;20043;-81
2022/05/12 07:48:40;;;;;;;8.25;4.65;;;;;;;22.69;55.51;101575.94;4974537;28;20054;-78
2022/05/12 07:51:08;;;;;;;4.82;3.88;;;;;;;22.68;55.42;101563.41;4972884;28;20414;-80
2022/05/12 07:53:37;;;;;;;7.38;3.55;;;;;;;22.71;55.42;101568.53;4989181;28;20482;-80
2022/05/12 07:56:06;;;;;;;6.28;3.78;;;;;;;22.72;55.15;101564.00;4995433;28;20466;-80
2022/05/12 07:58:33;;;;;;;6.25;3.80;;;;;;;22.73;55.46;101560.31;4994703;28;20057;-79
2022/05/12 08:01:01;;;;;;;7.35;3.42;;;;;;;22.74;55.18;101562.03;4993743;28;20050;-80
2022/05/12 08:03:28;;;;;;;7.18;4.22;;;;;;;22.75;55.77;101557.47;4994086;28;20505;-81
2022/05/12 08:05:58;;;;;;;5.88;3.25;;;;;;;22.77;55.54;101569.88;4994418;28;20046;-85
2022/05/12 08:08:26;;;;;;;5.85;3.25;;;;;;;22.78;55.79;101565.31;4974186;28;20071;-80
2022/05/12 08:10:54;;;;;;;6.00;3.50;;;;;;;22.79;55.34;101565.16;4982998;28;20047;-80
2022/05/12 08:13:21;;;;;;;10.88;4.38;;;;;;;22.79;55.48;101559.75;4994100;28;20047;-81
2022/05/12 08:15:51;;;;;;;9.48;3.90;;;;;;;22.82;55.68;101572.16;4993850;28;20042;-78
2022/05/12 08:18:22;;;;;;;3.72;3.17;;;;;;;22.83;55.63;101563.06;4994228;28;20045;-80
2022/05/12 08:20:51;;;;;;;8.77;3.80;;;;;;;22.84;55.92;101565.59;4993003;28;20054;-85
2022/05/12 08:23:18;;;;;;;6.28;4.18;;;;;;;22.85;55.34;101561.06;4992598;28;20046;-78
2022/05/12 08:25:47;;;;;;;7.40;3.95;;;;;;;22.84;55.46;101565.59;4993871;28;20454;-81
2022/05/12 08:28:16;;;;;;;5.88;3.50;;;;;;;22.86;55.50;101560.09;4994497;28;20498;-81
2022/05/12 08:30:45;;;;;;;6.25;3.38;;;;;;;22.86;55.43;101560.94;4993861;28;20046;-80
2022/05/12 08:33:13;;;;;;;4.63;3.45;;;;;;;22.87;55.33;101550.97;4994261;28;20050;-80
2022/05/12 08:35:44;;;;;;;8.35;3.97;;;;;;;22.86;55.39;101560.94;4993731;28;20049;-84
2022/05/12 08:38:14;;;;;;;8.77;3.58;;;;;;;22.87;55.46;101564.47;4995187;28;20094;-79
2022/05/12 08:40:52;;;;;;;6.35;3.17;;;;;;;22.88;55.37;101568.88;4994232;28;20043;-81
2022/05/12 08:43:36;;;;;;;6.45;3.70;;;;;;;22.89;55.24;101570.63;4993445;28;20050;-81
2022/05/12 08:46:08;;;;;;;7.90;3.17;;;;;;;22.88;55.02;101572.44;4995196;28;20382;-81
2022/05/12 08:48:43;;;;;;;5.57;3.72;;;;;;;22.89;54.86;101579.56;4995215;28;20050;-80
2022/05/12 08:51:17;;;;;;;6.75;3.75;;;;;;;22.90;54.59;101583.13;4995628;28;20402;-83
2022/05/12 08:53:51;;;;;;;7.95;3.28;;;;;;;22.90;54.59;101578.59;4990101;28;20380;-84
2022/05/12 08:56:22;;;;;;;4.03;3.10;;;;;;;22.92;54.58;101573.06;4975610;28;20043;-81
2022/05/12 08:58:54;;;;;;;6.00;3.40;;;;;;;22.92;54.53;101575.75;4990415;28;20050;-80
2022/05/12 09:01:36;;;;;;;10.38;3.90;;;;;;;22.91;53.99;101571.34;4975828;28;20051;-78
2022/05/12 09:04:33;;;;;;;7.60;3.55;;;;;;;22.93;54.01;101574.78;4979226;28;20049;-80
2022/05/12 09:07:15;;;;;;;4.30;3.47;;;;;;;22.92;54.15;101564.94;4979067;28;20094;-77
2022/05/12 09:10:01;;;;;;;8.00;3.55;;;;;;;22.92;54.14;101573.06;4979183;28;20046;-79
2022/05/12 09:12:35;;;;;;;6.10;3.65;;;;;;;22.91;54.01;101569.50;4979290;28;20054;-79
2022/05/12 09:15:11;;;;;;;4.75;3.60;;;;;;;22.93;54.16;101572.09;4978854;28;20047;-78
2022/05/12 09:17:57;;;;;;;4.55;3.10;;;;;;;22.93;53.86;101572.09;4977780;28;20047;-80
2022/05/12 09:20:29;;;;;;;4.97;3.42;;;;;;;22.92;54.12;101568.50;4977422;28;20058;-83
2022/05/12 09:22:58;;;;;;;4.35;3.25;;;;;;;22.93;53.83;101566.69;4977652;28;20065;-80
2022/05/12 09:25:28;;;;;;;6.50;3.70;;;;;;;22.94;54.01;101569.22;4979056;28;20050;-78
2022/05/12 09:27:58;;;;;;;5.10;3.53;;;;;;;22.92;53.78;101563.09;4978844;28;20050;-79
2022/05/12 09:30:35;;;;;;;6.30;3.42;;;;;;;22.94;53.48;101565.69;4979111;28;20051;-80
2022/05/12 09:33:03;;;;;;;5.57;3.70;;;;;;;22.93;53.44;101566.69;4978617;28;20058;-83
2022/05/12 09:35:31;;;;;;;4.20;3.60;;;;;;;22.93;53.32;101558.59;4979350;28;20057;-78
2022/05/12 09:38:18;;;;;;;4.47;3.42;;;;;;;22.94;53.41;101571.09;4978263;28;20058;-78
2022/05/12 09:40:45;;;;;;;4.90;3.55;;;;;;;22.93;52.25;101558.59;4978435;28;20046;-80
2022/05/12 09:43:24;;;;;;;4.60;3.65;;;;;;;22.94;52.68;101568.38;4979053;28;20054;-80
2022/05/12 09:46:18;;;;;;;6.97;3.63;;;;;;;22.94;53.40;101561.13;4990298;28;20043;-82
2022/05/12 09:48:50;;;;;;;9.40;3.35;;;;;;;22.96;53.46;101560.97;4987217;28;20054;-88
2022/05/12 09:51:29;;;;;;;8.13;3.63;;;;;;;22.99;53.23;101559.88;4998098;28;20058;-85
2022/05/12 09:54:15;;;;;;;8.05;4.10;;;;;;;23.00;53.46;101561.56;4995833;28;20089;-80
2022/05/12 09:56:52;;;;;;;5.60;3.13;;;;;;;22.99;53.63;101549.91;4996129;28;20039;-83
2022/05/12 09:59:25;;;;;;;4.82;2.97;;;;;;;23.00;53.47;101561.56;4997953;28;20375;-82
2022/05/12 10:01:54;;;;;;;5.10;4.22;;;;;;;23.00;53.71;101551.59;4997250;28;20050;-82
2022/05/12 10:10:22;;;;;;;7.13;4.35;;;;;;;23.02;53.60;101563.16;4996301;28;20050;-80
2022/05/12 10:13:06;;;;;;;4.82;3.78;;;;;;;23.03;53.50;101558.59;4995567;28;20070;-81
2022/05/12 10:15:39;;;;;;;5.85;2.95;;;;;;;23.03;53.68;101551.34;4996911;28;20050;-80
2022/05/12 10:18:28;;;;;;;7.25;4.50;;;;;;;23.04;54.00;101549.50;4995287;28;20411;-80
2022/05/12 10:21:02;;;;;;;7.10;4.13;;;;;;;23.06;54.30;101547.53;4981874;28;20134;-83
2022/05/12 10:23:53;;;;;;;7.53;3.70;;;;;;;23.07;53.68;101557.31;4976987;28;20042;-82
2022/05/12 10:26:32;;;;;;;8.40;4.20;;;;;;;23.07;53.90;101558.16;4976805;28;20042;-80
2022/05/12 10:29:20;;;;;;;5.78;4.20;;;;;;;23.07;54.01;101551.94;4977557;28;20508;-82
2022/05/12 10:31:57;;;;;;;4.88;3.80;;;;;;;23.06;53.86;101551.06;4977044;28;20051;-83
2022/05/12 10:34:51;;;;;;;6.25;3.88;;;;;;;23.07;53.98;101541.13;4977783;28;20049;-86
2022/05/12 10:37:47;;;;;;;4.22;3.50;;;;;;;23.08;54.21;101545.53;4975097;28;20066;-85
2022/05/12 10:40:29;;;;;;;5.68;3.60;;;;;;;23.07;53.97;101533.88;4958870;28;20062;-82
2022/05/12 10:43:09;;;;;;;6.47;3.83;;;;;;;23.08;53.98;101535.56;4978607;28;20055;-80
2022/05/12 10:45:41;;;;;;;5.15;3.63;;;;;;;23.08;53.99;101532.88;4977031;28;20050;-91
2022/05/12 10:48:38;;;;;;;5.50;3.60;;;;;;;23.08;54.39;101527.47;4977490;28;20046;-85
2022/05/12 10:51:15;;;;;;;5.18;3.60;;;;;;;23.09;54.00;101531.00;4976650;28;20058;-86
2022/05/12 10:54:18;;;;;;;4.40;3.60;;;;;;;23.09;54.24;101522.91;4975578;28;20046;-80
2022/05/12 10:57:32;;;;;;;7.30;4.28;;;;;;;23.09;54.07;101522.91;4993787;28;20035;-77
2022/05/12 11:00:08;;;;;;;4.78;3.75;;;;;;;23.10;54.25;101528.19;4994862;28;20465;-86
2022/05/12 11:02:41;;;;;;;5.10;3.70;;;;;;;23.10;54.11;101524.66;4994217;28;20165;-88
2022/05/12 11:05:30;;;;;;;5.20;3.90;;;;;;;23.10;53.75;101508.44;4994247;28;20061;-86
2022/05/12 11:08:09;;;;;;;4.93;4.28;;;;;;;23.10;54.00;101522.78;4993457;28;20103;-81
2022/05/12 11:10:44;;;;;;;6.32;3.78;;;;;;;23.10;53.74;101514.69;4993123;28;20054;-82
2022/05/12 11:13:25;;;;;;;4.95;3.85;;;;;;;23.11;54.00;101520.94;4993103;28;20534;-81
2022/05/12 11:15:58;;;;;;;5.25;3.72;;;;;;;23.10;54.03;101513.84;4992299;28;20054;-82
2022/05/12 11:18:35;;;;;;;4.85;4.03;;;;;;;23.11;53.86;101519.09;4994182;28;20057;-81
2022/05/12 11:21:13;;;;;;;6.65;4.72;;;;;;;23.11;54.27;101510.13;4994820;28;20074;-81
2022/05/12 11:24:22;;;;;;;5.57;4.18;;;;;;;23.11;54.20;101515.53;4992463;28;20046;-78
2022/05/12 11:27:11;;;;;;;6.65;4.20;;;;;;;23.11;54.26;101524.50;4915371;29;20067;-82
2022/05/12 11:29:51;;;;;;;4.78;4.28;;;;;;;23.12;53.90;101522.63;4917653;29;20064;-82
2022/05/12 11:32:53;;;;;;;8.70;4.35;;;;;;;23.12;54.55;101511.84;4914840;29;20111;-82
2022/05/12 11:35:31;;;;;;;5.57;4.38;;;;;;;23.12;54.23;101509.97;4916822;29;20428;-82
2022/05/12 11:38:02;;;;;;;6.65;4.80;;;;;;;23.13;54.15;101508.13;4900788;29;20408;-82
2022/05/12 11:40:43;;;;;;;7.25;4.68;;;;;;;23.13;53.74;101503.63;4916597;29;20191;-83
2022/05/12 11:46:15;;;;;;;;;;;;;;;23.13;54.02;101503.63;4918311;29;20052;-82
2022/05/12 11:49:08;;;;;;;4.82;3.90;;;;;;;23.14;54.29;101493.66;4916496;29;20335;-83
2022/05/12 11:52:07;;;;;;;7.35;4.50;;;;;;;23.13;54.05;101490.09;4916569;29;20052;-81
2022/05/12 11:54:38;;;;;;;5.10;4.03;;;;;;;23.13;53.54;101492.81;4916025;29;20048;-81
2022/05/12 11:57:27;;;;;;;5.38;3.92;;;;;;;23.14;53.81;101483.69;4926110;29;20060;-79
2022/05/12 11:59:57;;;;;;;7.15;3.78;;;;;;;23.15;54.13;101476.44;4934560;29;20056;-81
2022/05/12 12:02:28;;;;;;;7.55;4.15;;;;;;;23.15;54.11;101471.91;4943908;28;20066;-81
2022/05/12 12:05:01;;;;;;;7.40;4.30;;;;;;;23.15;53.87;101474.59;4974868;28;20072;-81
2022/05/12 12:07:31;;;;;;;4.85;4.05;;;;;;;23.14;53.86;101467.50;4974661;28;20043;-82
2022/05/12 12:10:24;;;;;;;5.72;4.07;;;;;;;23.16;53.77;101470.03;4974149;28;20050;-78